createdAt,value
2023-02-28T00:01:29.143Z,95.47
2023-02-28T00:03:58.866Z,95.64
2023-02-28T00:06:27.345Z,96.24
2023-02-28T00:08:55.590Z,95.91
2023-02-28T00:11:23.944Z,95.42
2023-02-28T00:13:52.120Z,95.58
2023-02-28T00:16:22.825Z,95.77
2023-02-28T00:18:51.701Z,96.20
2023-02-28T00:21:21.888Z,96.54
2023-02-28T00:23:50.156Z,96.38
2023-02-28T00:26:20.684Z,96.48
2023-02-28T00:28:50.398Z,96.09
2023-02-28T00:31:18.673Z,96.04
2023-02-28T00:33:47.074Z,96.11
2023-02-28T00:36:16.484Z,96.27
2023-02-28T00:38:45.958Z,96.55
2023-02-28T00:41:14.085Z,97.21
2023-02-28T00:43:42.581Z,97.10
2023-02-28T00:46:12.862Z,97.09
2023-02-28T00:48:41.050Z,96.85
2023-02-28T00:51:09.193Z,97.38
2023-02-28T00:53:37.658Z,97.75
2023-02-28T00:56:07.672Z,97.13
2023-02-28T00:58:36.129Z,96.70
2023-02-28T01:01:04.356Z,97.51
2023-02-28T01:03:32.783Z,97.48
2023-02-28T01:06:01.137Z,97.06
2023-02-28T01:08:29.475Z,96.48
2023-02-28T01:10:57.835Z,96.79
2023-02-28T01:13:27.371Z,96.58
2023-02-28T01:15:58.334Z,97.13
2023-02-28T01:18:26.621Z,97.97
2023-02-28T01:20:55.111Z,98.67
2023-02-28T01:23:24.981Z,99.18
2023-02-28T01:25:53.938Z,100.00
2023-02-28T01:28:22.549Z,100.00
2023-02-28T01:30:53.343Z,100.00
2023-02-28T01:33:22.119Z,100.00
2023-02-28T01:35:50.513Z,100.00
2023-02-28T01:38:22.819Z,100.00
2023-02-28T01:40:52.211Z,100.00
2023-02-28T01:43:24.106Z,100.00
2023-02-28T01:45:54.652Z,100.00
2023-02-28T01:48:28.006Z,100.00
2023-02-28T01:50:58.074Z,100.00
2023-02-28T01:53:34.107Z,100.00
2023-02-28T01:56:05.643Z,100.00
2023-02-28T01:58:33.967Z,100.00
2023-02-28T02:01:04.376Z,100.00
2023-02-28T02:03:33.087Z,100.00
2023-02-28T02:06:01.540Z,100.00
2023-02-28T02:08:31.240Z,100.00
2023-02-28T02:11:02.125Z,100.00
2023-02-28T02:13:44.824Z,100.00
2023-02-28T02:16:26.172Z,100.00
2023-02-28T02:18:56.703Z,100.00
2023-02-28T02:22:00.904Z,100.00
2023-02-28T02:25:06.758Z,100.00
2023-02-28T02:28:01.753Z,100.00
2023-02-28T02:30:55.737Z,100.00
2023-02-28T02:34:24.047Z,100.00
2023-02-28T02:36:55.635Z,100.00
2023-02-28T02:39:33.337Z,100.00
2023-02-28T02:42:04.098Z,100.00
2023-02-28T02:44:45.483Z,100.00
2023-02-28T02:47:17.679Z,100.00
2023-02-28T02:49:51.463Z,100.00
2023-02-28T02:52:23.927Z,100.00
2023-02-28T02:54:58.526Z,100.00
2023-02-28T02:57:31.997Z,100.00
2023-02-28T03:00:01.813Z,100.00
2023-02-28T03:02:34.951Z,100.00
2023-02-28T03:05:09.923Z,100.00
2023-02-28T03:07:38.854Z,100.00
2023-02-28T03:10:32.579Z,100.00
2023-02-28T03:13:28.239Z,100.00
2023-02-28T03:16:10.061Z,100.00
2023-02-28T03:18:48.970Z,100.00
2023-02-28T03:21:24.435Z,100.00
2023-02-28T03:24:02.694Z,100.00
2023-02-28T03:26:31.636Z,100.00
2023-02-28T03:29:06.271Z,100.00
2023-02-28T03:31:39.488Z,100.00
2023-02-28T03:34:12.097Z,100.00
2023-02-28T03:36:46.467Z,100.00
2023-02-28T03:39:20.229Z,100.00
2023-02-28T03:41:54.048Z,100.00
2023-02-28T03:44:27.560Z,100.00
2023-02-28T03:47:02.118Z,100.00
2023-02-28T03:49:35.196Z,100.00
2023-02-28T03:52:08.971Z,100.00
2023-02-28T03:54:43.734Z,100.00
2023-02-28T03:57:17.300Z,100.00
2023-02-28T03:59:49.653Z,100.00
2023-02-28T04:02:17.880Z,100.00
2023-02-28T04:04:49.407Z,100.00
2023-02-28T04:07:19.847Z,100.00
2023-02-28T04:09:48.092Z,100.00
2023-02-28T04:12:16.277Z,100.00
2023-02-28T04:14:44.425Z,100.00
2023-02-28T04:17:12.590Z,100.00
2023-02-28T04:19:40.748Z,100.00
2023-02-28T04:22:10.974Z,100.00
2023-02-28T04:24:42.344Z,100.00
2023-02-28T04:27:11.373Z,100.00
2023-02-28T04:29:39.709Z,100.00
2023-02-28T04:32:08.175Z,100.00
2023-02-28T04:34:36.773Z,100.00
2023-02-28T04:37:14.187Z,100.00
2023-02-28T04:39:44.996Z,100.00
2023-02-28T04:42:14.390Z,100.00
2023-02-28T04:44:42.676Z,100.00
2023-02-28T04:47:11.030Z,100.00
2023-02-28T04:49:39.190Z,100.00
2023-02-28T04:52:08.556Z,100.00
2023-02-28T04:54:36.732Z,100.00
2023-02-28T04:57:06.967Z,100.00
2023-02-28T04:59:35.218Z,100.00
2023-02-28T05:02:07.629Z,100.00
2023-02-28T05:04:36.372Z,100.00
2023-02-28T05:07:05.240Z,100.00
2023-02-28T05:09:33.998Z,100.00
2023-02-28T05:12:02.151Z,100.00
2023-02-28T05:14:31.759Z,100.00
2023-02-28T05:16:59.914Z,100.00
2023-02-28T05:19:28.226Z,100.00
2023-02-28T05:21:57.665Z,100.00
2023-02-28T05:24:25.840Z,100.00
2023-02-28T05:26:56.290Z,100.00
2023-02-28T05:29:24.620Z,100.00
2023-02-28T05:31:54.244Z,100.00
2023-02-28T05:34:22.520Z,100.00
2023-02-28T05:36:50.724Z,100.00
2023-02-28T05:39:18.866Z,100.00
2023-02-28T05:41:47.040Z,100.00
2023-02-28T05:44:15.172Z,100.00
2023-02-28T05:46:43.323Z,100.00
2023-02-28T05:49:13.126Z,100.00
2023-02-28T05:51:41.542Z,100.00
2023-02-28T05:54:10.748Z,100.00
2023-02-28T05:56:40.880Z,100.00
2023-02-28T05:59:09.027Z,100.00
2023-02-28T06:01:39.223Z,100.00
2023-02-28T06:04:22.202Z,100.00
2023-02-28T06:06:52.702Z,100.00
2023-02-28T06:09:21.387Z,100.00
2023-02-28T06:11:49.567Z,100.00
2023-02-28T06:14:19.584Z,100.00
2023-02-28T06:16:48.506Z,100.00
2023-02-28T06:19:17.313Z,100.00
2023-02-28T06:21:46.217Z,100.00
2023-02-28T06:24:15.734Z,100.00
2023-02-28T06:26:43.915Z,100.00
2023-02-28T06:29:12.457Z,100.00
2023-02-28T06:31:40.907Z,100.00
2023-02-28T06:34:09.103Z,100.00
2023-02-28T06:36:37.321Z,100.00
2023-02-28T06:39:05.583Z,100.00
2023-02-28T06:41:53.717Z,100.00
2023-02-28T06:44:23.847Z,100.00
2023-02-28T06:46:52.132Z,100.00
2023-02-28T06:49:20.641Z,100.00
2023-02-28T06:51:48.812Z,100.00
2023-02-28T06:54:16.957Z,100.00
2023-02-28T06:56:46.418Z,100.00
2023-02-28T06:59:14.571Z,100.00
2023-02-28T07:01:42.875Z,100.00
2023-02-28T07:04:11.499Z,100.00
2023-02-28T07:06:39.697Z,100.00
2023-02-28T07:09:10.173Z,100.00
2023-02-28T07:11:38.300Z,100.00
2023-02-28T07:14:07.813Z,100.00
2023-02-28T07:16:36.009Z,100.00
2023-02-28T07:19:04.537Z,100.00
2023-02-28T07:21:32.708Z,100.00
2023-02-28T07:24:00.816Z,100.00
2023-02-28T07:26:29.078Z,100.00
2023-02-28T07:28:57.207Z,100.00
2023-02-28T07:31:27.062Z,100.00
2023-02-28T07:33:55.322Z,100.00
2023-02-28T07:36:23.440Z,100.00
2023-02-28T07:38:51.853Z,100.00
2023-02-28T07:41:21.879Z,98.99
2023-02-28T07:43:50.152Z,98.62
2023-02-28T07:46:21.204Z,98.29
2023-02-28T07:48:50.911Z,97.81
2023-02-28T07:51:19.210Z,97.50
2023-02-28T07:53:47.323Z,99.80
2023-02-28T07:56:15.477Z,98.40
2023-02-28T07:58:43.668Z,97.67
2023-02-28T08:01:12.694Z,96.84
2023-02-28T08:03:41.529Z,95.15
2023-02-28T08:06:18.270Z,93.89
2023-02-28T08:08:46.551Z,93.58
2023-02-28T08:11:14.811Z,92.54
2023-02-28T08:13:44.942Z,93.19
2023-02-28T08:16:16.448Z,91.92
2023-02-28T08:18:45.202Z,91.62
2023-02-28T08:21:14.707Z,91.10
2023-02-28T08:23:42.874Z,89.30
2023-02-28T08:26:12.251Z,89.17
2023-02-28T08:28:40.506Z,87.35
2023-02-28T08:31:12.860Z,86.77
2023-02-28T08:33:41.149Z,85.62
2023-02-28T08:36:11.042Z,83.32
2023-02-28T08:38:40.650Z,80.59
2023-02-28T08:41:12.596Z,79.33
2023-02-28T08:43:42.307Z,78.85
2023-02-28T08:46:14.156Z,77.37
2023-02-28T08:48:42.866Z,75.65
2023-02-28T08:51:13.456Z,74.83
2023-02-28T08:53:42.912Z,72.60
2023-02-28T08:56:12.859Z,69.80
2023-02-28T08:58:41.864Z,70.08
2023-02-28T09:01:11.580Z,69.23
2023-02-28T09:03:39.950Z,69.29
2023-02-28T09:06:08.324Z,69.78
2023-02-28T09:08:36.924Z,69.50
2023-02-28T09:11:07.597Z,70.10
2023-02-28T09:13:36.214Z,70.53
2023-02-28T09:16:06.546Z,68.85
2023-02-28T09:18:36.935Z,67.41
2023-02-28T09:21:06.343Z,67.33
2023-02-28T09:23:34.529Z,66.65
2023-02-28T09:26:02.952Z,63.82
2023-02-28T09:28:32.749Z,63.67
2023-02-28T09:31:01.375Z,63.75
2023-02-28T09:33:29.576Z,62.53
2023-02-28T09:36:01.379Z,62.24
2023-02-28T09:38:30.122Z,62.75
2023-02-28T09:41:01.542Z,62.88
2023-02-28T09:43:35.098Z,61.33
2023-02-28T09:46:11.880Z,60.06
2023-02-28T09:48:46.543Z,60.27
2023-02-28T09:51:30.141Z,58.89
2023-02-28T09:54:01.898Z,58.74
2023-02-28T09:56:37.994Z,59.28
2023-02-28T09:59:16.195Z,59.32
2023-02-28T10:01:54.432Z,59.90
2023-02-28T10:04:38.852Z,59.13
2023-02-28T10:07:20.279Z,59.32
2023-02-28T10:09:54.068Z,58.19
2023-02-28T10:12:22.596Z,58.68
2023-02-28T10:14:55.089Z,59.63
2023-02-28T10:17:26.529Z,58.44
2023-02-28T10:20:08.675Z,59.35
2023-02-28T10:22:47.710Z,60.26
2023-02-28T10:25:20.670Z,59.48
2023-02-28T10:27:48.816Z,58.77
2023-02-28T10:30:18.640Z,58.46
2023-02-28T10:32:54.451Z,59.10
2023-02-28T10:35:24.408Z,59.03
2023-02-28T10:37:56.671Z,59.08
2023-02-28T10:40:33.511Z,58.59
2023-02-28T10:43:03.435Z,58.51
2023-02-28T10:45:35.806Z,58.88
2023-02-28T10:48:06.632Z,58.50
2023-02-28T10:50:41.065Z,58.94
2023-02-28T10:53:25.329Z,58.47
2023-02-28T10:55:59.441Z,58.34
2023-02-28T10:58:30.081Z,58.48
2023-02-28T11:01:01.211Z,59.44
2023-02-28T11:03:34.618Z,59.23
2023-02-28T11:06:08.842Z,58.28
2023-02-28T11:08:47.470Z,58.59
2023-02-28T11:11:17.809Z,58.23
2023-02-28T11:13:47.576Z,59.15
2023-02-28T11:16:17.893Z,58.71
2023-02-28T11:18:51.430Z,58.77
2023-02-28T11:21:27.013Z,57.88
2023-02-28T11:24:06.214Z,58.45
2023-02-28T11:26:40.141Z,58.16
2023-02-28T11:29:17.890Z,57.53
2023-02-28T11:32:04.020Z,57.13
2023-02-28T11:34:33.294Z,57.10
2023-02-28T11:37:05.817Z,56.33
2023-02-28T11:39:35.332Z,57.25
2023-02-28T11:42:22.891Z,57.13
2023-02-28T11:45:03.974Z,57.29
2023-02-28T11:47:44.137Z,58.07
2023-02-28T11:50:22.584Z,57.36
2023-02-28T11:52:54.820Z,57.79
2023-02-28T11:55:27.954Z,57.10
2023-02-28T11:58:18.791Z,56.53
2023-02-28T12:01:03.730Z,56.36
2023-02-28T12:03:45.126Z,56.67
2023-02-28T12:06:20.774Z,56.71
2023-02-28T12:09:04.627Z,56.34
2023-02-28T12:11:42.000Z,56.21
2023-02-28T12:14:43.747Z,55.83
2023-02-28T12:17:24.281Z,56.47
2023-02-28T12:20:08.359Z,56.51
2023-02-28T12:22:41.861Z,56.80
2023-02-28T12:25:41.956Z,56.58
2023-02-28T12:28:12.869Z,56.99
2023-02-28T12:30:48.184Z,56.63
2023-02-28T12:33:19.663Z,57.07
2023-02-28T12:35:53.188Z,56.40
2023-02-28T12:38:24.488Z,56.43
2023-02-28T12:40:56.765Z,56.72
2023-02-28T12:43:30.898Z,56.42
2023-02-28T12:46:03.309Z,56.96
2023-02-28T12:48:39.404Z,57.43
2023-02-28T12:51:10.332Z,57.40
2023-02-28T12:53:50.514Z,57.52
2023-02-28T12:56:23.680Z,57.05
2023-02-28T12:58:56.435Z,57.38
2023-02-28T13:01:44.605Z,56.86
2023-02-28T13:05:01.950Z,56.30
2023-02-28T13:08:08.938Z,56.57
2023-02-28T13:10:47.619Z,56.39
2023-02-28T13:13:18.968Z,56.43
2023-02-28T13:16:03.257Z,56.71
2023-02-28T13:18:34.835Z,56.30
2023-02-28T13:21:03.332Z,57.02
2023-02-28T13:23:59.517Z,56.67
2023-02-28T13:27:05.021Z,56.33
2023-02-28T13:29:37.479Z,55.88
2023-02-28T13:32:30.115Z,56.61
2023-02-28T13:35:36.250Z,56.61
2023-02-28T13:38:36.831Z,56.59
2023-02-28T13:41:46.487Z,57.14
2023-02-28T13:44:16.875Z,57.70
2023-02-28T13:47:23.061Z,57.11
2023-02-28T13:49:53.726Z,57.40
2023-02-28T13:52:25.513Z,57.53
2023-02-28T13:55:09.763Z,58.14
2023-02-28T13:57:51.534Z,57.86
2023-02-28T14:00:30.837Z,57.71
2023-02-28T14:03:14.510Z,57.73
2023-02-28T14:05:44.944Z,57.32
2023-02-28T14:08:18.825Z,57.39
2023-02-28T14:10:49.326Z,57.85
2023-02-28T14:13:45.758Z,58.23
2023-02-28T14:16:16.410Z,57.88
2023-02-28T14:18:51.707Z,57.98
2023-02-28T14:21:26.722Z,58.68
2023-02-28T14:24:32.795Z,58.15
2023-02-28T14:27:13.856Z,58.15
2023-02-28T14:30:13.571Z,58.30
2023-02-28T14:32:49.866Z,59.53
2023-02-28T14:35:31.354Z,59.77
2023-02-28T14:38:00.927Z,59.18
2023-02-28T14:40:32.282Z,58.02
2023-02-28T14:43:01.849Z,58.07
2023-02-28T14:45:32.599Z,58.09
2023-02-28T14:48:02.301Z,57.83
2023-02-28T14:50:33.904Z,58.03
2023-02-28T14:53:04.074Z,57.88
2023-02-28T14:55:34.347Z,57.12
2023-02-28T14:58:05.262Z,57.13
2023-02-28T15:00:34.649Z,58.02
2023-02-28T15:03:20.606Z,57.78
2023-02-28T15:05:54.714Z,57.89
2023-02-28T15:08:25.214Z,57.67
2023-02-28T15:10:56.058Z,58.57
2023-02-28T15:13:26.069Z,58.41
2023-02-28T15:16:04.868Z,57.96
2023-02-28T15:18:42.634Z,57.18
2023-02-28T15:21:15.997Z,56.78
2023-02-28T15:23:50.690Z,57.21
2023-02-28T15:26:23.305Z,57.80
2023-02-28T15:28:54.638Z,57.04
2023-02-28T15:31:27.831Z,56.59
2023-02-28T15:33:58.539Z,56.97
2023-02-28T15:36:32.776Z,57.00
2023-02-28T15:39:14.394Z,57.70
2023-02-28T15:41:44.206Z,57.58
2023-02-28T15:44:17.848Z,57.35
2023-02-28T15:46:56.044Z,57.02
2023-02-28T15:49:25.498Z,57.42
2023-02-28T15:51:57.959Z,57.55
2023-02-28T15:54:31.663Z,57.79
2023-02-28T15:57:05.675Z,57.65
2023-02-28T15:59:34.221Z,57.50
2023-02-28T16:02:22.294Z,57.63
2023-02-28T16:05:15.236Z,57.94
2023-02-28T16:07:44.682Z,58.18
2023-02-28T16:10:15.532Z,58.32
2023-02-28T16:12:44.048Z,58.32
2023-02-28T16:15:20.706Z,58.67
2023-02-28T16:17:49.450Z,58.81
2023-02-28T16:20:19.767Z,58.93
2023-02-28T16:22:47.896Z,59.17
2023-02-28T16:25:19.535Z,59.26
2023-02-28T16:27:51.252Z,60.85
2023-02-28T16:30:23.057Z,61.60
2023-02-28T16:32:53.855Z,62.47
2023-02-28T16:35:22.995Z,62.43
2023-02-28T16:37:52.638Z,62.69
2023-02-28T16:40:24.390Z,62.96
2023-02-28T16:42:55.587Z,62.37
2023-02-28T16:45:25.701Z,62.89
2023-02-28T16:47:54.501Z,63.65
2023-02-28T16:50:24.309Z,63.89
2023-02-28T16:52:55.413Z,64.63
2023-02-28T16:55:26.181Z,65.25
2023-02-28T16:57:56.400Z,65.39
2023-02-28T17:00:26.025Z,65.76
2023-02-28T17:02:54.631Z,66.81
2023-02-28T17:05:24.320Z,67.31
2023-02-28T17:07:52.785Z,68.13
2023-02-28T17:10:23.352Z,69.03
2023-02-28T17:12:54.974Z,69.14
2023-02-28T17:15:24.965Z,70.12
2023-02-28T17:17:53.645Z,70.88
2023-02-28T17:20:24.399Z,71.80
2023-02-28T17:22:52.939Z,72.43
2023-02-28T17:25:21.709Z,72.60
2023-02-28T17:27:52.202Z,72.25
2023-02-28T17:30:24.111Z,72.19
2023-02-28T17:32:52.316Z,72.43
2023-02-28T17:35:20.589Z,72.13
2023-02-28T17:37:48.797Z,72.91
2023-02-28T17:40:18.981Z,73.22
2023-02-28T17:42:47.525Z,73.92
2023-02-28T17:45:16.627Z,73.68
2023-02-28T17:47:50.034Z,73.61
2023-02-28T17:50:20.265Z,73.87
2023-02-28T17:52:48.686Z,74.04
2023-02-28T17:55:16.932Z,75.43
2023-02-28T17:57:45.129Z,77.70
2023-02-28T18:00:16.785Z,77.57
2023-02-28T18:02:46.713Z,77.48
2023-02-28T18:05:15.231Z,78.02
2023-02-28T18:07:43.453Z,77.56
2023-02-28T18:10:16.983Z,77.72
2023-02-28T18:12:45.194Z,77.25
2023-02-28T18:15:13.326Z,77.02
2023-02-28T18:17:41.476Z,76.86
2023-02-28T18:20:12.787Z,76.89
2023-02-28T18:22:42.315Z,76.38
2023-02-28T18:25:16.880Z,76.36
2023-02-28T18:27:54.341Z,76.53
2023-02-28T18:30:23.328Z,77.34
2023-02-28T18:32:51.548Z,77.73
2023-02-28T18:35:34.895Z,78.96
2023-02-28T18:38:05.530Z,79.73
2023-02-28T18:40:34.179Z,79.32
2023-02-28T18:43:02.888Z,79.38
2023-02-28T18:45:31.176Z,80.63
2023-02-28T18:47:59.425Z,81.18
2023-02-28T18:50:29.578Z,81.64
2023-02-28T18:52:59.205Z,81.65
2023-02-28T18:55:27.939Z,81.91
2023-02-28T18:57:56.184Z,81.69
2023-02-28T19:00:25.881Z,81.26
2023-02-28T19:02:54.235Z,81.84
2023-02-28T19:05:22.609Z,82.13
2023-02-28T19:07:52.166Z,82.26
2023-02-28T19:10:20.321Z,81.75
2023-02-28T19:12:48.459Z,81.33
2023-02-28T19:15:16.880Z,81.62
2023-02-28T19:17:46.234Z,80.97
2023-02-28T19:20:14.869Z,80.95
2023-02-28T19:22:44.169Z,80.89
2023-02-28T19:25:13.734Z,80.71
2023-02-28T19:27:41.897Z,81.09
2023-02-28T19:30:11.380Z,81.91
2023-02-28T19:32:39.569Z,83.26
2023-02-28T19:35:09.092Z,83.58
2023-02-28T19:37:39.216Z,83.35
2023-02-28T19:40:09.279Z,83.43
2023-02-28T19:42:38.742Z,83.76
2023-02-28T19:45:10.089Z,83.94
2023-02-28T19:47:38.389Z,84.13
2023-02-28T19:50:07.401Z,84.23
2023-02-28T19:52:35.815Z,84.16
2023-02-28T19:55:04.069Z,83.88
2023-02-28T19:57:32.359Z,83.45
2023-02-28T20:00:05.662Z,83.53
2023-02-28T20:02:41.600Z,83.76
2023-02-28T20:05:10.591Z,83.91
2023-02-28T20:07:38.836Z,84.22
2023-02-28T20:10:07.988Z,84.54
2023-02-28T20:12:36.152Z,85.15
2023-02-28T20:15:06.754Z,86.00
2023-02-28T20:17:34.975Z,86.38
2023-02-28T20:20:03.590Z,86.42
2023-02-28T20:22:31.708Z,86.57
2023-02-28T20:24:59.815Z,86.18
2023-02-28T20:27:28.208Z,86.58
2023-02-28T20:29:56.339Z,86.02
2023-02-28T20:32:26.929Z,86.03
2023-02-28T20:34:55.142Z,86.18
2023-02-28T20:37:23.426Z,86.31
2023-02-28T20:39:53.029Z,86.55
2023-02-28T20:42:21.187Z,86.25
2023-02-28T20:44:49.360Z,86.59
2023-02-28T20:47:17.886Z,86.44
2023-02-28T20:49:47.754Z,86.22
2023-02-28T20:52:15.878Z,86.25
2023-02-28T20:54:44.331Z,87.19
2023-02-28T20:57:12.507Z,88.10
2023-02-28T20:59:42.012Z,88.10
2023-02-28T21:02:11.803Z,88.14
2023-02-28T21:04:39.981Z,88.36
2023-02-28T21:07:09.529Z,88.29
2023-02-28T21:09:38.166Z,88.35
2023-02-28T21:12:06.564Z,88.18
2023-02-28T21:14:35.177Z,88.13
2023-02-28T21:17:03.493Z,88.25
2023-02-28T21:19:32.802Z,88.47
2023-02-28T21:22:01.239Z,88.73
2023-02-28T21:24:30.858Z,88.97
2023-02-28T21:27:01.137Z,88.98
2023-02-28T21:29:29.900Z,88.88
2023-02-28T21:31:59.420Z,88.60
2023-02-28T21:34:28.440Z,88.54
2023-02-28T21:36:56.888Z,88.57
2023-02-28T21:39:30.063Z,88.58
2023-02-28T21:42:03.649Z,89.12
2023-02-28T21:44:34.291Z,89.02
2023-02-28T21:47:02.695Z,89.24
2023-02-28T21:49:31.156Z,89.47
2023-02-28T21:51:59.902Z,89.46
2023-02-28T21:54:28.026Z,89.42
2023-02-28T21:56:56.766Z,89.40
2023-02-28T21:59:26.405Z,89.33
2023-02-28T22:01:56.184Z,89.40
2023-02-28T22:04:24.882Z,89.72
2023-02-28T22:06:55.283Z,89.85
2023-02-28T22:09:24.186Z,90.26
2023-02-28T22:11:52.597Z,90.37
2023-02-28T22:14:20.921Z,90.94
2023-02-28T22:16:53.191Z,91.40
2023-02-28T22:19:22.999Z,91.51
2023-02-28T22:21:51.662Z,91.69
2023-02-28T22:24:24.041Z,91.67
2023-02-28T22:26:52.683Z,91.59
2023-02-28T22:29:21.095Z,91.57
2023-02-28T22:31:50.741Z,91.93
2023-02-28T22:34:19.508Z,91.86
2023-02-28T22:36:47.670Z,91.68
2023-02-28T22:39:16.158Z,91.49
2023-02-28T22:41:44.423Z,91.75
2023-02-28T22:44:12.948Z,92.27
2023-02-28T22:46:41.233Z,92.40
2023-02-28T22:49:10.837Z,92.17
2023-02-28T22:51:39.009Z,92.19
2023-02-28T22:54:07.208Z,92.17
2023-02-28T22:56:35.465Z,92.76
2023-02-28T22:59:03.729Z,92.58
2023-02-28T23:01:33.634Z,92.78
2023-02-28T23:04:02.836Z,92.69
2023-02-28T23:06:34.326Z,92.69
2023-02-28T23:09:05.985Z,92.83
2023-02-28T23:11:35.735Z,93.19
2023-02-28T23:14:04.345Z,93.35
2023-02-28T23:16:35.509Z,93.68
2023-02-28T23:19:06.438Z,93.91
2023-02-28T23:21:37.535Z,93.63
2023-02-28T23:24:10.339Z,93.62
2023-02-28T23:26:39.625Z,93.77
2023-02-28T23:29:07.831Z,93.69
2023-02-28T23:31:36.312Z,93.99
2023-02-28T23:34:04.515Z,94.18
2023-02-28T23:36:33.216Z,94.74
2023-02-28T23:39:02.970Z,94.70
2023-02-28T23:41:31.740Z,94.54
2023-02-28T23:44:00.041Z,94.96
2023-02-28T23:46:28.573Z,95.03
2023-02-28T23:48:57.016Z,95.10
2023-02-28T23:51:25.361Z,94.94
2023-02-28T23:53:53.558Z,94.89
2023-02-28T23:56:26.027Z,95.02
2023-02-28T23:58:55.870Z,94.80
